Annapolis, CA (95412)

6:53 AM PDT on August 24, 2016 (GMT -0700)
Creekside | | Change Station

Elev 479 ft 38.71 °N, 123.32 °W | Updated 24 seconds ago

Overcast
Overcast
49.4 °F
Feels Like 49 °F
N
0.0
Wind Variable Wind from South
Gusts 0.0 mph

Today
High -- | Low -- °F
--% Chance of Precip.
Yesterday
High -- | Low -- °F
Precip. -- in
Pressure 30.07 in
Visibility 10.0 miles
Clouds Overcast 1000 ft
Windchill 49 °F
Dew Point 38 °F
Humidity 64%
Rainfall 0.00 in
Snow Depth Not available.
6:35 AM 7:54 PM
Waning Gibbous, 57% visible
SPECI KSTS 241321Z AUTO 00000KT 10SM OVC010 12/11 A3007 RMK AO2 T01220111
Pressure 30.07 in
Visibility 10.0 miles
Clouds Overcast 1000 ft
Windchill 49 °F
Dew Point 38 °F
Humidity 64%
Rainfall 0.00 in
Snow Depth Not available.
6:35 AM 7:54 PM
Waning Gibbous, 57% visible
SPECI KSTS 241321Z AUTO 00000KT 10SM OVC010 12/11 A3007 RMK AO2 T01220111

10-Day Weather Forecast

Almanac

Astronomy

Aug. 24, 2016 Rise Set
Actual Time
Civil Twilight
Nautical Twilight
Astronomical Twilight
Moon
Length of Visible Light
Length of Day
Tomorrow will be .
, % of the Moon is Illuminated

Today's Extremes

State Highs State Lows

Community

WunderPhotos

Upload Photos

1,934,598 photos uploaded!

WunderBlog® & News

Nearby

Air Quality

  Air Quality AQ Index Pollutant
Not available.

Snow Depth

Station Depth Elevation

Earthquake Activity

City Distance Mag. Time & Date
Minimum magnitude displayed is 2.5.

Coastal Water Temperatures

Place Temperature

Stations

Nearby Weather Stations

Station Location Temp. Windchill Dew Point Humidity Wind Precip. Elev Updated Type
                   

Watches & Warnings

There are currently no watches in effect.